Trubaduren, Sweden

3:06 AM CEST on August 23, 2014 (GMT +0200)
Kalvsund, Gothenburg, Sweden | Change Station
CLOSE
Current Station
Personal Weather Station
Location: Kalvsund, VäSTRA GöTALANDS LäN
Elevation: 16 ft
Nearby Weather Stations

Elev 16 ft 57.71 °N, 11.68 °E | Updated 1 minute ago

Rain
Rain
57.2 °F
Feels Like 57.2 °F
N
2.2
Wind Variable Wind from West
Gusts 9.2 mph

Today
High -- | Low -- °F
--% Chance of Precip.
Yesterday
High -- | Low -- °F
Precip. -- in
5:54 AM 8:36 PM
Waning Crescent, 6% visible
Pressure 29.62 in
Visibility 6.2 miles
Clouds Few 2200 ft
Mostly Cloudy 5500 ft
Dew Point 55 °F
Humidity 91%
Rainfall 0.05 in
Snow Depth Not available.
UV 0 out of 12
Pollen Not available.
Air Quality Not available.
Flu Activity Not available.
METAR ESGP 230050Z 10005KT 9999 FEW022 BKN055 12/11 Q1003

More Conditions Fewer Conditions

Pressure 29.62 in
Visibility 6.2 miles
Clouds Few 2200 ft
Mostly Cloudy 5500 ft
Dew Point 55 °F
Humidity 91%
Rainfall 0.05 in
Snow Depth Not available.
UV 0 out of 12
Pollen Not available.
Air Quality Not available.
Flu Activity Not available.
METAR ESGP 230050Z 10005KT 9999 FEW022 BKN055 12/11 Q1003

More Conditions Fewer Conditions

10-Day Weather Forecast

Almanac

Astronomy

Aug. 23, 2014 Rise Set
Actual Time 5:54 AM CEST 8:36 PM CEST
Civil Twilight 5:11 AM CEST 9:19 PM CEST
Nautical Twilight 4:13 AM CEST 10:16 PM CEST
Astronomical Twilight 2:54 AM CEST 11:33 PM CEST
Moon 3:45 AM CEST 7:15 PM CEST
Length of Visible Light 16h 08m
Length of Day
14h 41m
Tomorrow will be 4m 47s shorter.
Waning Crescent, 6% of the Moon is Illuminated
Aug 22
Waning Crescent
Aug 25
New
Sep 2
First Quarter
Sep 8
Full
Sep 15
Last Quarter

Yesterday's Extremes

Country Highs Country Lows

Community

WunderPhotos

Upload Photos

1,746,336 photos uploaded!

WunderBlogs® & News

Nearby

Snow Depth

Not available.

Earthquake Activity

City Distance Mag. Time & Date
No recent earthquake activity has been reported nearby.
Minimum magnitude displayed is 2.5.

Coastal Water Temperatures

Place Temperature
No Stations Reporting

Nearby Weather Stations